Time;durP1;ratioP1;P1;durP2;ratioP2;P2;SDS_P1;SDS_P2;PMS_P1;PMS_P2;Temp;Humidity;BMP_temperature;BMP_pressure;BME280_temperature;BME280_humidity;BME280_pressure;Samples;Min_cycle;Max_cycle;Signal;HPM_P1;HPM_P2
2023/06/19 00:01:36;;;;;;;0.10;0.10;;;;;;;14.50;51.67;99945.03;4906943;29;20131;-73
2023/06/19 00:04:02;;;;;;;0.10;0.10;;;;;;;14.45;53.62;99945.94;4889461;29;20051;-73
2023/06/19 00:06:30;;;;;;;0.10;0.10;;;;;;;14.43;53.44;99944.59;4904580;29;20567;-73
2023/06/19 00:08:56;;;;;;;0.10;0.10;;;;;;;14.36;54.52;99944.97;4907476;29;20048;-71
2023/06/19 00:11:22;;;;;;;0.32;0.13;;;;;;;14.28;55.80;99940.09;4906368;29;20058;-73
2023/06/19 00:13:48;;;;;;;0.85;0.10;;;;;;;14.27;53.80;99949.47;4908079;29;20048;-73
2023/06/19 00:16:14;;;;;;;0.30;0.10;;;;;;;14.25;53.84;99946.22;4907143;29;20075;-72
2023/06/19 00:18:41;;;;;;;0.10;0.10;;;;;;;14.18;53.17;99949.31;4907063;29;20059;-73
2023/06/19 00:21:07;;;;;;;0.10;0.10;;;;;;;14.14;53.49;99940.88;4906007;29;20539;-73
2023/06/19 00:23:35;;;;;;;0.10;0.10;;;;;;;14.10;54.03;99947.25;4908807;29;20541;-73
2023/06/19 00:26:01;;;;;;;0.10;0.10;;;;;;;14.02;55.22;99941.28;4908429;29;20111;-74
2023/06/19 00:28:27;;;;;;;0.08;0.08;;;;;;;14.00;54.07;99939.94;4905486;29;20048;-73
2023/06/19 00:30:53;;;;;;;0.10;0.10;;;;;;;13.95;54.25;99940.00;4889069;29;20048;-73
2023/06/19 00:33:21;;;;;;;;;;;;;;;13.90;55.12;99943.66;4889021;29;20066;-74
2023/06/19 00:35:48;;;;;;;0.10;0.10;;;;;;;13.84;54.33;99947.56;4905372;29;19927;-73
2023/06/19 00:38:14;;;;;;;0.10;0.10;;;;;;;13.81;54.12;99953.63;4903941;29;20559;-73
2023/06/19 00:40:42;;;;;;;0.10;0.10;;;;;;;13.78;53.47;99949.53;4889334;29;20048;-73
2023/06/19 00:43:09;;;;;;;0.10;0.10;;;;;;;13.81;53.08;99950.88;4904777;29;20083;-73
2023/06/19 00:45:36;;;;;;;0.10;0.10;;;;;;;13.80;52.70;99958.31;4905163;29;20048;-73
2023/06/19 00:48:04;;;;;;;0.10;0.10;;;;;;;13.74;53.92;99946.56;4906789;29;20052;-73
2023/06/19 00:50:31;;;;;;;0.10;0.10;;;;;;;13.75;53.82;99948.22;4905692;29;20052;-73
2023/06/19 00:52:58;;;;;;;0.00;0.00;;;;;;;13.71;54.63;99943.59;4906819;29;20052;-73
2023/06/19 00:55:25;;;;;;;;;;;;;;;13.73;53.44;99953.16;4869996;29;20117;-73
2023/06/19 00:57:53;;;;;;;0.00;0.00;;;;;;;13.75;53.84;99945.47;4893245;29;19927;-74
2023/06/19 01:00:20;;;;;;;0.10;0.10;;;;;;;13.80;54.04;99949.25;4889654;29;20056;-72
2023/06/19 01:02:47;;;;;;;0.10;0.10;;;;;;;13.74;53.92;99954.81;4907358;29;20083;-73
2023/06/19 01:05:13;;;;;;;0.10;0.10;;;;;;;13.69;53.09;99951.31;4905012;29;20048;-74
2023/06/19 01:07:45;;;;;;;0.10;0.10;;;;;;;13.68;53.90;99953.22;4908412;29;20105;-74
2023/06/19 01:10:16;;;;;;;0.10;0.10;;;;;;;13.68;53.81;99963.41;4906289;29;20044;-74
2023/06/19 01:12:50;;;;;;;0.00;0.00;;;;;;;13.67;53.36;99954.34;4905722;29;20083;-73
2023/06/19 01:15:19;;;;;;;0.10;0.10;;;;;;;13.67;52.82;99961.78;4889434;29;20738;-74
2023/06/19 01:17:47;;;;;;;0.10;0.10;;;;;;;13.67;52.29;99953.53;4908061;29;20056;-73
2023/06/19 01:20:14;;;;;;;0.10;0.10;;;;;;;13.64;53.37;99957.66;4905732;29;20135;-73
2023/06/19 01:22:45;;;;;;;0.00;0.00;;;;;;;13.64;51.88;99951.34;4910905;29;20052;-74
2023/06/19 01:25:13;;;;;;;0.10;0.10;;;;;;;13.61;53.52;99959.06;4893490;29;20103;-73
2023/06/19 01:27:41;;;;;;;0.10;0.10;;;;;;;13.62;52.89;99957.16;4910740;29;20056;-74
2023/06/19 01:30:07;;;;;;;;;;;;;;;13.61;53.08;99961.81;4909587;29;20506;-73
2023/06/19 01:32:41;;;;;;;0.10;0.10;;;;;;;13.64;52.45;99957.66;4910112;29;19970;-73
2023/06/19 01:35:09;;;;;;;0.10;0.10;;;;;;;13.71;52.83;99960.88;4907683;29;20052;-73
2023/06/19 01:37:37;;;;;;;0.10;0.10;;;;;;;13.67;53.51;99956.28;4910052;29;20819;-73
2023/06/19 01:40:09;;;;;;;0.10;0.10;;;;;;;13.69;52.59;99962.31;4909843;29;20048;-73
2023/06/19 01:42:37;;;;;;;0.10;0.10;;;;;;;13.74;51.88;99959.47;4907319;29;20058;-73
2023/06/19 01:45:05;;;;;;;0.10;0.10;;;;;;;13.72;51.59;99958.97;4909175;29;20049;-72
2023/06/19 01:47:32;;;;;;;0.10;0.10;;;;;;;13.78;52.07;99965.22;4910287;29;20056;-72
2023/06/19 01:49:59;;;;;;;0.00;0.00;;;;;;;13.81;51.78;99970.13;4910180;29;20044;-72
2023/06/19 01:52:25;;;;;;;0.10;0.10;;;;;;;13.86;51.85;99968.13;4894405;29;20120;-73
2023/06/19 01:54:52;;;;;;;0.10;0.10;;;;;;;13.85;50.93;99965.69;4893001;29;20516;-72
2023/06/19 01:57:19;;;;;;;0.10;0.10;;;;;;;13.86;51.87;99961.81;4891164;29;20142;-74
2023/06/19 01:59:47;;;;;;;0.10;0.10;;;;;;;13.86;51.43;99962.66;4891335;29;20408;-72
2023/06/19 02:02:13;;;;;;;0.10;0.10;;;;;;;13.93;51.17;99965.03;4891549;29;20508;-74
2023/06/19 02:04:39;;;;;;;0.10;0.10;;;;;;;13.88;51.31;99963.16;4908967;29;20587;-72
2023/06/19 02:07:06;;;;;;;0.10;0.10;;;;;;;13.90;51.34;99954.63;4910066;29;20546;-73
2023/06/19 02:09:32;;;;;;;0.10;0.10;;;;;;;13.93;51.74;99956.78;4910896;29;20127;-73
2023/06/19 02:11:58;;;;;;;0.10;0.10;;;;;;;13.93;50.84;99956.78;4909602;29;20047;-73
2023/06/19 02:14:27;;;;;;;0.20;0.20;;;;;;;13.95;51.04;99957.31;4876796;29;20291;-73
2023/06/19 02:16:53;;;;;;;0.10;0.10;;;;;;;13.92;51.40;99957.06;4909666;29;20048;-73
2023/06/19 02:19:21;;;;;;;0.10;0.10;;;;;;;13.95;51.01;99965.56;4912843;29;20050;-75
2023/06/19 02:21:48;;;;;;;0.10;0.10;;;;;;;13.98;51.10;99967.72;4909061;29;20056;-75
2023/06/19 02:24:15;;;;;;;0.10;0.10;;;;;;;14.01;50.87;99958.88;4908702;29;20048;-73
2023/06/19 02:26:43;;;;;;;0.10;0.10;;;;;;;14.06;50.71;99963.50;4891265;29;20142;-74
2023/06/19 02:29:10;;;;;;;0.10;0.10;;;;;;;14.07;51.74;99961.59;4877136;29;20063;-73
2023/06/19 02:31:37;;;;;;;0.10;0.10;;;;;;;14.07;51.12;99945.88;4907785;29;20075;-74
2023/06/19 02:34:05;;;;;;;0.10;0.10;;;;;;;14.14;51.21;99954.63;4905325;29;20163;-73
2023/06/19 02:36:31;;;;;;;0.10;0.10;;;;;;;14.20;50.35;99954.53;4908725;29;20059;-73
2023/06/19 02:38:57;;;;;;;0.10;0.10;;;;;;;14.22;50.78;99953.13;4909447;29;20056;-73
2023/06/19 02:41:23;;;;;;;0.10;0.10;;;;;;;14.25;50.41;99948.97;4909237;29;20143;-73
2023/06/19 02:43:50;;;;;;;0.10;0.10;;;;;;;14.24;50.37;99952.81;4907521;29;20323;-73
2023/06/19 02:46:16;;;;;;;0.10;0.10;;;;;;;14.23;51.24;99957.53;4925588;29;20469;-72
2023/06/19 02:48:44;;;;;;;0.10;0.10;;;;;;;14.32;51.87;99957.69;4910302;29;20056;-73
2023/06/19 02:51:10;;;;;;;0.10;0.10;;;;;;;14.36;51.45;99955.97;4908057;29;20051;-74
2023/06/19 02:53:36;;;;;;;0.10;0.10;;;;;;;14.42;50.68;99952.00;4922585;29;20056;-73
2023/06/19 02:56:03;;;;;;;0.10;0.10;;;;;;;14.45;49.85;99956.13;4907877;29;20520;-74
2023/06/19 02:58:30;;;;;;;0.10;0.10;;;;;;;14.45;50.28;99956.13;4889892;29;20128;-72
2023/06/19 03:00:56;;;;;;;0.10;0.10;;;;;;;14.44;50.14;99958.06;4907979;29;20132;-73
2023/06/19 03:03:22;;;;;;;0.10;0.10;;;;;;;14.36;50.15;99953.22;4904847;29;20048;-73
2023/06/19 03:05:52;;;;;;;0.10;0.10;;;;;;;14.35;50.71;99956.25;4908088;29;20059;-73
2023/06/19 03:08:18;;;;;;;0.10;0.10;;;;;;;14.46;50.02;99947.56;4909257;29;20495;-73
2023/06/19 03:10:44;;;;;;;0.10;0.10;;;;;;;14.55;50.66;99947.72;4910100;29;20048;-73
2023/06/19 03:13:12;;;;;;;0.10;0.10;;;;;;;14.64;49.80;99947.03;4908881;29;20546;-73
2023/06/19 03:15:39;;;;;;;0.10;0.10;;;;;;;14.74;48.93;99947.72;4908162;29;20056;-73
2023/06/19 03:18:08;;;;;;;0.20;0.20;;;;;;;14.80;49.43;99947.66;4908157;29;20048;-73
2023/06/19 03:20:35;;;;;;;0.10;0.10;;;;;;;14.83;49.28;99941.53;4906961;29;20048;-73
2023/06/19 03:23:03;;;;;;;0.10;0.10;;;;;;;14.89;49.04;99943.91;4922298;29;20056;-74
2023/06/19 03:25:34;;;;;;;0.10;0.10;;;;;;;14.88;49.12;99953.28;4909463;29;20055;-73
2023/06/19 03:28:02;;;;;;;0.10;0.10;;;;;;;14.91;49.01;99946.38;4906825;29;20497;-74
2023/06/19 03:30:29;;;;;;;0.10;0.10;;;;;;;14.92;49.59;99944.44;4906384;29;20052;-74
2023/06/19 03:32:56;;;;;;;0.10;0.10;;;;;;;15.00;49.33;99952.00;4907270;29;20055;-73
2023/06/19 03:35:42;;;;;;;0.10;0.10;;;;;;;15.05;48.70;99951.09;4905813;29;20048;-73
2023/06/19 03:38:14;;;;;;;0.10;0.10;;;;;;;15.04;48.71;99955.78;4907557;29;20060;-73
2023/06/19 03:40:41;;;;;;;0.10;0.10;;;;;;;15.09;48.66;99961.19;4905768;29;20056;-74
2023/06/19 03:43:10;;;;;;;0.10;0.10;;;;;;;15.20;48.41;99956.34;4890868;29;20123;-73
2023/06/19 03:45:37;;;;;;;0.13;0.13;;;;;;;15.28;48.72;99954.81;4889373;29;20056;-73
2023/06/19 03:48:04;;;;;;;0.20;0.20;;;;;;;15.38;47.56;99953.84;4905603;29;20048;-73
2023/06/19 03:50:30;;;;;;;0.20;0.20;;;;;;;15.40;47.96;99954.34;4908853;29;20056;-75
2023/06/19 03:52:57;;;;;;;0.20;0.20;;;;;;;15.44;47.94;99955.38;4906141;29;20559;-73
2023/06/19 03:55:24;;;;;;;0.13;0.13;;;;;;;15.40;48.08;99963.41;4890230;29;20107;-74
2023/06/19 03:57:50;;;;;;;0.20;0.20;;;;;;;15.44;48.09;99960.88;4889586;29;20448;-74
2023/06/19 04:00:18;;;;;;;0.20;0.20;;;;;;;15.52;47.59;99957.41;4888899;29;20056;-74
2023/06/19 04:02:47;;;;;;;0.20;0.20;;;;;;;15.55;47.24;99959.56;4903566;29;20142;-75
2023/06/19 04:05:19;;;;;;;0.20;0.20;;;;;;;15.54;47.33;99952.44;4905337;29;20442;-74
2023/06/19 04:07:45;;;;;;;0.20;0.20;;;;;;;15.68;47.78;99959.88;4904798;29;20573;-74
2023/06/19 04:10:14;;;;;;;0.10;0.10;;;;;;;15.79;47.39;99960.50;4906241;29;20052;-74
2023/06/19 04:12:42;;;;;;;0.10;0.10;;;;;;;15.83;46.94;99951.31;4905895;29;20111;-74
2023/06/19 04:15:09;;;;;;;0.20;0.20;;;;;;;15.93;46.39;99958.59;4904899;29;20060;-74
2023/06/19 04:17:36;;;;;;;0.20;0.20;;;;;;;15.99;47.25;99948.25;4901810;29;20248;-74
2023/06/19 04:20:11;;;;;;;0.43;0.20;;;;;;;16.09;46.87;99959.09;4894543;29;20583;-73
2023/06/19 04:22:38;;;;;;;0.20;0.20;;;;;;;16.08;46.33;99956.63;4889115;29;20072;-74
2023/06/19 04:25:06;;;;;;;0.20;0.20;;;;;;;15.99;47.28;99931.72;4906385;29;20138;-74
2023/06/19 04:27:32;;;;;;;0.20;0.20;;;;;;;16.20;46.62;99959.69;4909183;29;20060;-74
2023/06/19 04:29:59;;;;;;;0.10;0.10;;;;;;;16.30;46.53;99950.38;4891514;29;20079;-73
2023/06/19 04:32:26;;;;;;;0.13;0.13;;;;;;;16.38;46.05;99957.91;4908590;29;20052;-73
2023/06/19 04:34:52;;;;;;;0.20;0.20;;;;;;;16.44;45.97;99959.44;4893540;29;20092;-74
2023/06/19 04:37:19;;;;;;;0.20;0.20;;;;;;;16.48;45.89;99950.53;4905565;29;20077;-73
2023/06/19 04:39:45;;;;;;;0.20;0.20;;;;;;;16.51;45.13;99952.69;4902239;29;20515;-74
2023/06/19 04:42:13;;;;;;;0.20;0.20;;;;;;;16.51;45.05;99950.72;4907553;29;20295;-75
2023/06/19 04:44:39;;;;;;;0.20;0.20;;;;;;;16.52;45.22;99955.13;4908288;29;20075;-74
2023/06/19 04:47:07;;;;;;;0.20;0.20;;;;;;;16.58;45.23;99953.06;4898896;29;20052;-74
2023/06/19 04:49:33;;;;;;;0.20;0.20;;;;;;;16.64;44.50;99948.22;4907129;29;20060;-74
2023/06/19 04:52:00;;;;;;;0.20;0.20;;;;;;;16.66;44.60;99945.97;4906728;29;20512;-75
2023/06/19 04:54:26;;;;;;;0.20;0.20;;;;;;;16.72;44.78;99959.34;4907819;29;20076;-74
2023/06/19 04:56:53;;;;;;;0.10;0.10;;;;;;;16.73;44.30;99949.94;4904620;29;20048;-72
2023/06/19 04:59:19;;;;;;;0.20;0.20;;;;;;;16.80;44.33;99963.31;4906716;29;20404;-73
2023/06/19 05:01:45;;;;;;;0.20;0.20;;;;;;;16.86;43.65;99955.72;4903433;29;20059;-74
2023/06/19 05:04:13;;;;;;;0.20;0.20;;;;;;;16.90;43.90;99947.63;4904941;29;20062;-74
2023/06/19 05:06:39;;;;;;;0.20;0.20;;;;;;;17.01;43.68;99958.13;4889571;29;20222;-74
2023/06/19 05:09:06;;;;;;;0.20;0.20;;;;;;;17.05;43.05;99951.97;4904358;29;20104;-73
2023/06/19 05:11:32;;;;;;;0.20;0.20;;;;;;;17.01;42.30;99963.66;4905925;29;20079;-75
2023/06/19 05:13:59;;;;;;;0.20;0.20;;;;;;;17.00;43.14;99953.75;4905624;29;20082;-74
2023/06/19 05:16:25;;;;;;;0.30;0.30;;;;;;;17.05;42.57;99957.50;4903711;29;20052;-74
2023/06/19 05:18:51;;;;;;;0.20;0.20;;;;;;;17.11;42.64;99962.56;4901208;29;20504;-74
2023/06/19 05:21:19;;;;;;;0.20;0.20;;;;;;;17.21;42.27;99946.88;4901204;29;20372;-74
2023/06/19 05:23:50;;;;;;;0.30;0.30;;;;;;;17.28;42.20;99956.34;4901155;29;20048;-74
2023/06/19 05:26:16;;;;;;;0.20;0.20;;;;;;;17.34;42.27;99954.28;4870290;29;20102;-74
2023/06/19 05:28:42;;;;;;;0.20;0.20;;;;;;;17.46;42.09;99955.63;4902930;29;20048;-74
2023/06/19 05:31:08;;;;;;;0.20;0.20;;;;;;;17.49;41.48;99955.81;4904978;29;20520;-74
2023/06/19 05:33:35;;;;;;;0.20;0.20;;;;;;;17.50;41.67;99951.91;4907691;29;20411;-74
2023/06/19 05:36:02;;;;;;;0.20;0.20;;;;;;;17.50;41.38;99948.34;4892125;29;20082;-74
2023/06/19 05:38:30;;;;;;;0.30;0.20;;;;;;;17.48;40.58;99950.59;4904970;29;20315;-74
2023/06/19 05:40:57;;;;;;;0.28;0.28;;;;;;;17.56;40.38;99949.81;4900719;29;20391;-74
2023/06/19 05:43:24;;;;;;;0.20;0.20;;;;;;;17.60;39.86;99948.03;4903456;29;20044;-73
2023/06/19 05:45:51;;;;;;;0.22;0.22;;;;;;;17.65;39.20;99950.69;4904778;29;20051;-73
2023/06/19 05:48:17;;;;;;;0.20;0.20;;;;;;;17.72;38.74;99948.25;4907363;29;20051;-73
2023/06/19 05:50:43;;;;;;;0.20;0.20;;;;;;;17.81;38.62;99940.00;4917882;29;20064;-73
2023/06/19 05:53:10;;;;;;;0.20;0.20;;;;;;;17.86;38.03;99934.31;4905220;29;20131;-74
2023/06/19 05:55:37;;;;;;;0.20;0.20;;;;;;;17.89;38.10;99935.63;4905856;29;20124;-74
2023/06/19 05:58:04;;;;;;;0.22;0.22;;;;;;;17.94;37.81;99932.69;4905196;29;20451;-74
2023/06/19 06:00:31;;;;;;;0.20;0.20;;;;;;;17.97;37.00;99940.38;4905450;29;20048;-74
2023/06/19 06:03:02;;;;;;;0.20;0.20;;;;;;;18.00;37.21;99936.97;4904456;29;20048;-74
2023/06/19 06:05:28;;;;;;;0.20;0.20;;;;;;;17.93;37.09;99933.84;4905053;29;20115;-73
2023/06/19 06:07:55;;;;;;;0.20;0.20;;;;;;;18.02;37.60;99931.13;4905788;29;20107;-74
2023/06/19 06:10:23;;;;;;;0.20;0.20;;;;;;;18.08;36.58;99934.56;4886626;29;20534;-74
2023/06/19 06:12:50;;;;;;;0.20;0.20;;;;;;;18.09;36.85;99927.88;4908395;29;20051;-74
2023/06/19 06:15:17;;;;;;;0.20;0.20;;;;;;;18.15;36.94;99932.16;4891447;29;20108;-74
2023/06/19 06:17:43;;;;;;;0.20;0.20;;;;;;;18.18;36.51;99931.50;4875599;29;20051;-74
2023/06/19 06:20:11;;;;;;;0.30;0.30;;;;;;;18.19;36.39;99932.31;4908178;29;20056;-74
2023/06/19 06:22:39;;;;;;;0.20;0.20;;;;;;;18.25;36.64;99934.59;4902508;29;20508;-73
2023/06/19 06:25:05;;;;;;;0.22;0.22;;;;;;;18.42;35.88;99938.53;4921602;29;20127;-74
2023/06/19 06:27:32;;;;;;;0.20;0.20;;;;;;;18.52;35.94;99934.63;4909287;29;20052;-74
2023/06/19 06:30:00;;;;;;;0.20;0.20;;;;;;;18.66;35.82;99926.97;4885184;29;20547;-74
2023/06/19 06:32:30;;;;;;;0.25;0.25;;;;;;;18.92;35.37;99942.72;4905286;29;20307;-74
2023/06/19 06:34:57;;;;;;;0.30;0.30;;;;;;;19.09;34.97;99936.38;4905665;29;20371;-74
2023/06/19 06:37:24;;;;;;;0.30;0.30;;;;;;;19.33;34.51;99940.56;4908878;29;20074;-72
2023/06/19 06:39:50;;;;;;;0.28;0.28;;;;;;;19.48;34.29;99933.66;4907987;29;20047;-73
2023/06/19 06:42:17;;;;;;;0.30;0.30;;;;;;;19.59;33.77;99934.13;4904218;29;20044;-74
2023/06/19 06:44:45;;;;;;;0.20;0.20;;;;;;;19.70;33.49;99932.59;4877891;29;20074;-74
2023/06/19 06:47:14;;;;;;;0.20;0.20;;;;;;;19.78;33.62;99930.09;4906880;29;20068;-74
2023/06/19 06:49:40;;;;;;;0.20;0.20;;;;;;;19.87;33.69;99925.34;4923838;29;20103;-75
2023/06/19 06:52:07;;;;;;;0.30;0.30;;;;;;;20.05;33.26;99919.72;4906091;29;20049;-76
2023/06/19 06:54:34;;;;;;;0.28;0.28;;;;;;;20.16;33.08;99922.91;4906071;29;20570;-76
2023/06/19 06:57:00;;;;;;;0.30;0.30;;;;;;;20.25;32.78;99929.22;4909346;29;20112;-75
2023/06/19 06:59:27;;;;;;;0.30;0.30;;;;;;;20.31;32.68;99918.72;4909631;29;21372;-73
2023/06/19 07:01:55;;;;;;;0.20;0.20;;;;;;;20.44;32.18;99923.19;4907943;29;20044;-73
2023/06/19 07:04:22;;;;;;;;;;;;;;;20.59;32.14;99916.22;4923910;29;20146;-75
2023/06/19 07:06:48;;;;;;;;;;;;;;;20.58;31.85;99920.13;4911880;29;20013;-75
2023/06/19 07:09:15;;;;;;;0.30;0.30;;;;;;;20.46;32.05;99906.19;4907205;29;19985;-75
2023/06/19 07:11:41;;;;;;;0.30;0.30;;;;;;;20.52;32.27;99915.94;4904609;29;20052;-75
2023/06/19 07:14:07;;;;;;;0.30;0.30;;;;;;;20.59;32.29;99912.59;4905227;29;20070;-75
2023/06/19 07:16:34;;;;;;;0.30;0.30;;;;;;;20.61;31.94;99911.13;4905709;29;20068;-76
2023/06/19 07:19:00;;;;;;;0.30;0.30;;;;;;;20.79;32.18;99897.06;4904200;29;20055;-75
2023/06/19 07:21:29;;;;;;;0.30;0.30;;;;;;;20.88;31.74;99899.78;4908115;29;20606;-75
2023/06/19 07:23:57;;;;;;;0.30;0.30;;;;;;;20.87;31.60;99896.22;4907353;29;20127;-75
2023/06/19 07:26:23;;;;;;;0.30;0.30;;;;;;;21.00;31.45;99899.84;4906229;29;20059;-75
2023/06/19 07:28:50;;;;;;;0.30;0.30;;;;;;;21.23;31.26;99891.09;4905200;29;20055;-76
2023/06/19 07:31:16;;;;;;;0.30;0.30;;;;;;;21.58;30.55;99901.78;4908249;29;20147;-74
2023/06/19 07:33:43;;;;;;;0.30;0.30;;;;;;;21.96;30.01;99895.06;4889131;29;20059;-75
2023/06/19 07:36:13;;;;;;;0.40;0.30;;;;;;;22.09;29.68;99893.06;4907324;29;20048;-74
2023/06/19 07:38:43;;;;;;;0.30;0.30;;;;;;;21.98;29.75;99894.72;4909504;29;20143;-76
2023/06/19 07:41:10;;;;;;;0.30;0.30;;;;;;;21.84;30.11;99895.06;4922325;29;20143;-76
2023/06/19 07:43:37;;;;;;;0.30;0.30;;;;;;;21.92;29.89;99890.53;4908819;29;20058;-75
2023/06/19 07:46:03;;;;;;;0.30;0.30;;;;;;;22.01;29.52;99882.88;4906273;29;20048;-75
2023/06/19 07:48:30;;;;;;;0.30;0.30;;;;;;;22.28;29.17;99882.47;4906914;29;20052;-74
2023/06/19 07:50:56;;;;;;;0.30;0.30;;;;;;;22.58;29.05;99879.38;4911873;29;20453;-75
2023/06/19 07:53:22;;;;;;;0.30;0.30;;;;;;;22.72;28.42;99878.97;4911241;29;20068;-75
2023/06/19 07:55:50;;;;;;;0.30;0.30;;;;;;;22.55;28.84;99894.00;4905552;29;20462;-75
2023/06/19 07:58:16;;;;;;;0.30;0.30;;;;;;;22.53;28.26;99886.00;4909887;29;20108;-73
2023/06/19 08:00:42;;;;;;;0.30;0.30;;;;;;;22.57;27.59;99891.69;4905014;29;20111;-74
2023/06/19 08:03:09;;;;;;;0.30;0.30;;;;;;;22.72;27.21;99884.56;4889098;29;20092;-74
2023/06/19 08:05:35;;;;;;;0.30;0.30;;;;;;;22.90;27.30;99890.59;4889422;29;20052;-73
2023/06/19 08:08:02;;;;;;;0.30;0.30;;;;;;;23.03;26.96;99883.00;4907787;29;20361;-74
2023/06/19 08:10:28;;;;;;;0.40;0.40;;;;;;;23.01;26.99;99883.34;4907118;29;20076;-75
2023/06/19 08:12:56;;;;;;;0.40;0.40;;;;;;;23.22;27.08;99887.84;4908224;29;20717;-75
2023/06/19 08:15:22;;;;;;;0.38;0.38;;;;;;;23.46;26.82;99884.09;4875333;29;20162;-73
2023/06/19 08:17:48;;;;;;;0.37;0.37;;;;;;;23.48;26.51;99883.75;4889672;29;20056;-74
2023/06/19 08:20:15;;;;;;;0.40;0.40;;;;;;;23.38;26.85;99882.31;4910067;29;20532;-74
2023/06/19 08:22:41;;;;;;;0.30;0.30;;;;;;;23.36;26.94;99893.03;4912505;29;20135;-74
2023/06/19 08:25:08;;;;;;;0.30;0.30;;;;;;;23.18;26.65;99884.16;4916947;29;20056;-73
2023/06/19 08:27:34;;;;;;;0.30;0.30;;;;;;;22.81;27.13;99879.63;4904951;29;20055;-75
2023/06/19 08:30:03;;;;;;;0.27;0.27;;;;;;;22.45;27.69;99878.59;4920797;29;20062;-73
2023/06/19 08:32:34;;;;;;;0.30;0.30;;;;;;;22.42;27.69;99882.09;4920791;29;20186;-75
2023/06/19 08:35:00;;;;;;;0.40;0.40;;;;;;;22.79;27.60;99885.56;4905405;29;20427;-73
2023/06/19 08:37:26;;;;;;;0.40;0.40;;;;;;;23.34;26.47;99876.63;4909899;29;20103;-74
2023/06/19 08:39:53;;;;;;;0.40;0.40;;;;;;;23.82;25.63;99873.00;4908634;29;20056;-74
2023/06/19 08:42:19;;;;;;;0.40;0.40;;;;;;;24.38;25.09;99873.03;4908210;29;20048;-74
2023/06/19 08:44:45;;;;;;;0.40;0.40;;;;;;;25.08;24.03;99873.19;4907630;29;20071;-74
2023/06/19 08:47:13;;;;;;;0.40;0.40;;;;;;;25.65;23.55;99873.34;4905955;29;20056;-74
2023/06/19 08:49:39;;;;;;;0.43;0.43;;;;;;;26.02;22.87;99877.50;4907387;29;20135;-74
2023/06/19 08:52:07;;;;;;;0.50;0.50;;;;;;;26.20;22.33;99855.38;4904886;29;20044;-74
2023/06/19 08:54:33;;;;;;;0.50;0.50;;;;;;;26.62;22.20;99859.06;4905614;29;20094;-75
2023/06/19 08:57:01;;;;;;;0.40;0.40;;;;;;;26.71;21.79;99853.97;4906987;29;20047;-75
2023/06/19 08:59:31;;;;;;;0.50;0.50;;;;;;;26.96;21.79;99859.03;4876833;29;20056;-74
2023/06/19 09:01:59;;;;;;;0.50;0.50;;;;;;;27.44;21.13;99852.66;4906418;29;20143;-74
2023/06/19 09:04:31;;;;;;;0.50;0.50;;;;;;;27.72;20.60;99851.28;4906413;29;20044;-75
2023/06/19 09:07:02;;;;;;;0.73;0.50;;;;;;;27.58;20.38;99853.97;4891705;29;20154;-75
2023/06/19 09:09:34;;;;;;;0.50;0.50;;;;;;;27.67;20.55;99853.63;4876015;29;20044;-76
2023/06/19 09:12:03;;;;;;;0.50;0.50;;;;;;;28.18;20.05;99857.56;4906030;29;20048;-75
2023/06/19 09:14:33;;;;;;;0.50;0.50;;;;;;;28.63;19.38;99851.69;4888611;29;20056;-75
2023/06/19 09:17:03;;;;;;;0.60;0.60;;;;;;;28.95;18.83;99850.97;4905512;29;20110;-74
2023/06/19 09:19:36;;;;;;;0.60;0.60;;;;;;;29.33;18.72;99847.78;4903875;29;20055;-75
2023/06/19 09:22:04;;;;;;;0.60;0.60;;;;;;;29.43;18.65;99843.38;4922368;29;20063;-75
2023/06/19 09:24:36;;;;;;;0.60;0.60;;;;;;;29.21;18.75;99825.66;4905437;29;20048;-76
2023/06/19 09:27:09;;;;;;;0.70;0.70;;;;;;;29.29;18.19;99827.28;4889675;29;20056;-75
2023/06/19 09:29:38;;;;;;;0.60;0.60;;;;;;;29.20;18.87;99843.75;4917911;29;20361;-75
2023/06/19 09:32:18;;;;;;;0.70;0.70;;;;;;;29.69;18.54;99833.69;4914632;29;20440;-74
2023/06/19 09:34:47;;;;;;;0.70;0.70;;;;;;;30.09;17.93;99844.88;4906175;29;20052;-74
2023/06/19 09:37:17;;;;;;;0.70;0.70;;;;;;;30.13;17.75;99842.88;4906097;29;20063;-73
2023/06/19 09:39:44;;;;;;;0.80;0.80;;;;;;;30.47;17.41;99835.06;4905626;29;20178;-74
2023/06/19 09:42:15;;;;;;;0.70;0.70;;;;;;;30.48;17.51;99836.66;4918650;29;20055;-76
2023/06/19 09:44:42;;;;;;;0.70;0.70;;;;;;;30.28;17.94;99823.88;4908207;29;20044;-74
2023/06/19 09:47:18;;;;;;;0.70;0.70;;;;;;;30.39;17.47;99837.91;4926541;29;20077;-74
2023/06/19 09:49:53;;;;;;;0.80;0.80;;;;;;;30.31;17.46;99842.00;4881757;29;20464;-75
2023/06/19 09:52:30;;;;;;;0.93;0.75;;;;;;;30.40;17.13;99839.50;4729760;28;10001188;-76
2023/06/19 09:55:08;;;;;;;0.80;0.80;;;;;;;30.96;17.21;99823.88;4899979;29;20314;-74
2023/06/19 09:57:38;;;;;;;0.80;0.80;;;;;;;31.25;16.29;99827.31;4882310;29;20059;-74
2023/06/19 10:00:12;;;;;;;0.80;0.80;;;;;;;31.38;16.16;99821.94;4225195;29;10000569;-74
2023/06/19 10:02:41;;;;;;;0.90;0.90;;;;;;;31.84;15.44;99821.91;4905604;29;20048;-75
2023/06/19 10:05:13;;;;;;;0.80;0.80;;;;;;;31.91;15.49;99806.91;4920389;29;20051;-74
2023/06/19 10:07:42;;;;;;;0.90;0.90;;;;;;;31.30;15.83;99819.59;4888154;29;20055;-74
2023/06/19 10:10:12;;;;;;;0.85;0.85;;;;;;;31.40;15.39;99801.78;4906021;29;20083;-75
2023/06/19 10:12:40;;;;;;;0.90;0.90;;;;;;;31.58;15.33;99815.69;4900667;29;20150;-75
2023/06/19 10:15:11;;;;;;;0.90;0.90;;;;;;;31.74;15.70;99812.31;4902878;29;20060;-73
2023/06/19 10:17:38;;;;;;;0.90;0.90;;;;;;;32.10;15.13;99802.63;4906552;29;20044;-74
2023/06/19 10:20:04;;;;;;;;;;;;;;;32.76;15.16;99806.19;4900952;29;20617;-74
2023/06/19 10:22:32;;;;;;;1.00;1.00;;;;;;;33.09;14.85;99805.66;4898116;29;19927;-75
2023/06/19 10:24:58;;;;;;;1.00;1.00;;;;;;;33.41;14.04;99795.03;4906978;29;20052;-74
2023/06/19 10:27:25;;;;;;;1.00;1.00;;;;;;;33.71;14.12;99798.94;4908273;29;20055;-75
2023/06/19 10:29:53;;;;;;;1.00;1.00;;;;;;;33.92;13.90;99803.38;4908843;29;20107;-74
2023/06/19 10:32:20;;;;;;;1.00;1.00;;;;;;;34.07;13.76;99784.88;4907416;29;20163;-73
2023/06/19 10:34:47;;;;;;;1.00;1.00;;;;;;;33.84;13.92;99784.91;4907755;29;20519;-74
2023/06/19 10:37:14;;;;;;;1.00;1.00;;;;;;;33.47;14.34;99791.28;4905950;29;20139;-72
2023/06/19 10:39:42;;;;;;;1.00;1.00;;;;;;;33.74;14.23;99789.56;4907290;29;20428;-73
2023/06/19 10:42:10;;;;;;;1.10;1.10;;;;;;;33.97;13.74;99785.88;4908689;29;20119;-75
2023/06/19 10:44:42;;;;;;;1.10;1.10;;;;;;;34.29;13.29;99795.72;4906163;29;20044;-74
2023/06/19 10:47:08;;;;;;;1.10;1.10;;;;;;;34.61;13.42;99785.72;4905482;29;20483;-74
2023/06/19 10:49:35;;;;;;;1.10;1.10;;;;;;;34.58;13.49;99785.78;4910129;29;20060;-74
2023/06/19 10:52:01;;;;;;;1.10;1.10;;;;;;;34.33;13.21;99787.94;4907874;29;20074;-73
2023/06/19 10:54:29;;;;;;;1.10;1.10;;;;;;;33.92;13.45;99794.88;4907840;29;20052;-72
2023/06/19 10:56:57;;;;;;;1.10;1.10;;;;;;;33.69;13.66;99785.19;4886922;29;20412;-75
2023/06/19 10:59:24;;;;;;;1.20;1.20;;;;;;;33.38;13.63;99776.84;4889024;29;20400;-74
2023/06/19 11:01:51;;;;;;;1.27;1.20;;;;;;;33.27;13.13;99779.09;4890646;29;20111;-75
2023/06/19 11:04:18;;;;;;;;;;;;;;;33.16;13.10;99770.78;4908992;29;20051;-74
2023/06/19 11:06:47;;;;;;;1.20;1.20;;;;;;;33.24;13.15;99775.09;4891997;29;19950;-74
2023/06/19 11:09:14;;;;;;;1.20;1.20;;;;;;;33.46;12.87;99778.34;4907454;29;20419;-74
2023/06/19 11:11:41;;;;;;;;;;;;;;;33.78;12.69;99776.09;4906581;29;20315;-72
2023/06/19 11:14:10;;;;;;;1.30;1.20;;;;;;;34.02;12.40;99771.19;4902645;29;19926;-73
2023/06/19 11:16:40;;;;;;;1.25;1.20;;;;;;;34.39;11.98;99764.72;4909820;29;20099;-74
2023/06/19 11:19:07;;;;;;;1.23;1.20;;;;;;;34.53;12.39;99770.09;4908634;29;20056;-75
2023/06/19 11:21:38;;;;;;;1.30;1.20;;;;;;;34.87;11.84;99763.19;4910700;29;20131;-75
2023/06/19 11:24:06;;;;;;;1.30;1.20;;;;;;;35.22;11.54;99768.44;4910084;29;20044;-75
2023/06/19 11:26:35;;;;;;;1.30;1.20;;;;;;;35.27;11.51;99759.34;4901953;29;20055;-75
2023/06/19 11:29:03;;;;;;;1.30;1.20;;;;;;;34.79;11.91;99762.56;4909883;29;20159;-74
2023/06/19 11:31:33;;;;;;;1.33;1.23;;;;;;;34.96;11.60;99745.53;4898887;29;20047;-75
2023/06/19 11:34:01;;;;;;;1.20;1.20;;;;;;;35.69;11.21;99750.09;4915611;29;20060;-75
2023/06/19 11:36:29;;;;;;;1.25;1.20;;;;;;;36.06;10.93;99732.81;4913067;29;20048;-75